Time;durP1;ratioP1;P1;durP2;ratioP2;P2;SDS_P1;SDS_P2;PMS_P1;PMS_P2;Temp;Humidity;BMP_temperature;BMP_pressure;BME280_temperature;BME280_humidity;BME280_pressure;Samples;Min_cycle;Max_cycle;Signal;HPM_P1;HPM_P2
2021/10/03 00:00:43;;;;;;;8.85;6.80;;;;;;;10.50;100.00;92354.16;2124022;27;20397;-77
2021/10/03 00:01:46;;;;;;;9.55;7.22;;;;;;;10.71;100.00;92367.94;2117261;27;20084;-79
2021/10/03 00:02:50;;;;;;;10.93;7.78;;;;;;;10.76;100.00;92354.78;2116417;28;20468;-78
2021/10/03 00:03:53;;;;;;;11.40;7.70;;;;;;;10.61;100.00;92337.00;2120082;27;20023;-78
2021/10/03 00:04:56;;;;;;;11.30;7.80;;;;;;;10.53;100.00;92329.22;2116357;28;20032;-79
2021/10/03 00:05:59;;;;;;;11.43;7.43;;;;;;;10.76;100.00;92343.34;2123898;27;20023;-78
2021/10/03 00:07:01;;;;;;;7.35;6.65;;;;;;;10.75;100.00;92349.88;2118043;27;20379;-79
2021/10/03 00:08:04;;;;;;;8.90;6.82;;;;;;;10.84;100.00;92356.03;2106961;28;20034;-78
2021/10/03 00:09:05;;;;;;;7.72;6.40;;;;;;;10.82;100.00;92352.31;2099265;28;20021;-79
2021/10/03 00:10:07;;;;;;;7.25;6.18;;;;;;;10.92;100.00;92337.81;2115697;27;20065;-79
2021/10/03 00:11:09;;;;;;;7.80;7.00;;;;;;;10.77;100.00;92334.91;2115506;28;20016;-78
2021/10/03 00:12:10;;;;;;;8.40;5.88;;;;;;;10.78;100.00;92340.97;2109431;27;20491;-77
2021/10/03 00:13:11;;;;;;;11.15;7.70;;;;;;;10.76;100.00;92354.06;2121265;27;20269;-78
2021/10/03 00:14:12;;;;;;;8.93;7.55;;;;;;;10.67;100.00;92361.97;2124505;27;20026;-78
2021/10/03 00:15:16;;;;;;;8.85;7.60;;;;;;;10.64;100.00;92350.25;2127399;27;20041;-81
2021/10/03 00:16:17;;;;;;;9.48;7.40;;;;;;;10.64;100.00;92346.84;2129562;27;20019;-80
2021/10/03 00:17:18;;;;;;;8.35;7.38;;;;;;;10.65;100.00;92337.63;2124543;27;20063;-78
2021/10/03 00:18:19;;;;;;;9.05;7.82;;;;;;;10.66;100.00;92341.78;2132765;27;20467;-79
2021/10/03 00:19:22;;;;;;;8.23;6.93;;;;;;;10.65;100.00;92348.31;2128938;27;20059;-79
2021/10/03 00:20:23;;;;;;;9.57;7.32;;;;;;;10.64;100.00;92352.19;2128755;27;20052;-77
2021/10/03 00:21:24;;;;;;;7.78;6.97;;;;;;;10.64;100.00;92344.16;2133063;27;20030;-80
2021/10/03 00:22:25;;;;;;;8.15;7.35;;;;;;;10.64;100.00;92342.22;2133079;27;20472;-78
2021/10/03 00:23:27;;;;;;;8.82;7.05;;;;;;;10.64;100.00;92344.16;2132933;27;20026;-80
2021/10/03 00:24:30;;;;;;;9.73;7.57;;;;;;;10.67;100.00;92345.94;2133032;27;20018;-77
2021/10/03 00:25:31;;;;;;;7.80;7.10;;;;;;;10.79;100.00;92355.84;2114033;28;20068;-77
2021/10/03 00:26:32;;;;;;;7.68;6.55;;;;;;;10.86;100.00;92342.22;2107808;28;20032;-80
2021/10/03 00:27:33;;;;;;;11.48;6.85;;;;;;;10.88;100.00;92339.84;2109643;28;20023;-78
2021/10/03 00:28:34;;;;;;;8.93;6.68;;;;;;;10.75;100.00;92341.84;2112721;27;20497;-78
2021/10/03 00:29:35;;;;;;;7.38;6.60;;;;;;;10.74;100.00;92351.06;2133011;27;20034;-79
2021/10/03 00:30:38;;;;;;;7.30;6.60;;;;;;;10.89;100.00;92345.94;2133017;27;20046;-78
2021/10/03 00:31:39;;;;;;;6.68;6.07;;;;;;;11.04;100.00;92342.34;2133073;27;20416;-80
2021/10/03 00:32:41;;;;;;;7.45;6.38;;;;;;;10.94;100.00;92335.44;2126113;27;20027;-79
2021/10/03 00:33:42;;;;;;;10.60;6.93;;;;;;;10.88;100.00;92342.53;2106861;28;20058;-78
2021/10/03 00:34:43;;;;;;;8.00;6.80;;;;;;;11.02;100.00;92338.63;2113897;28;20095;-79
2021/10/03 00:35:44;;;;;;;10.23;7.03;;;;;;;11.00;100.00;92341.72;2125693;27;20075;-78
2021/10/03 00:36:45;;;;;;;7.00;6.28;;;;;;;11.01;100.00;92334.44;2124342;27;20055;-79
2021/10/03 00:37:46;;;;;;;8.35;7.35;;;;;;;10.96;100.00;92332.34;2124329;27;20792;-78
2021/10/03 00:38:47;;;;;;;7.53;6.72;;;;;;;11.11;100.00;92325.31;2106842;28;20066;-77
2021/10/03 00:39:48;;;;;;;8.68;6.72;;;;;;;11.09;100.00;92330.31;2098471;28;20671;-79
2021/10/03 00:40:49;;;;;;;7.82;6.68;;;;;;;11.06;100.00;92329.28;2114361;28;20019;-78
2021/10/03 00:41:50;;;;;;;7.93;6.97;;;;;;;11.18;100.00;92332.31;2123769;27;20019;-76
2021/10/03 00:42:51;;;;;;;8.65;6.60;;;;;;;11.13;100.00;92327.53;2124666;27;20092;-79
2021/10/03 00:43:53;;;;;;;8.52;6.97;;;;;;;10.97;100.00;92326.53;2124555;27;20030;-79
2021/10/03 00:44:55;;;;;;;7.13;6.47;;;;;;;10.89;100.00;92325.31;2124352;27;20060;-78
2021/10/03 00:45:56;;;;;;;9.13;6.65;;;;;;;10.86;100.00;92320.09;2124286;27;20019;-75
2021/10/03 00:46:58;;;;;;;7.32;6.57;;;;;;;10.94;100.00;92324.75;2106977;28;20024;-79
2021/10/03 00:47:59;;;;;;;8.63;6.57;;;;;;;11.13;100.00;92319.50;2114806;27;20102;-78
2021/10/03 00:49:00;;;;;;;7.65;6.90;;;;;;;11.14;100.00;92319.06;2131964;27;20416;-80
2021/10/03 00:50:01;;;;;;;8.25;6.85;;;;;;;11.12;100.00;92320.69;2119189;27;20084;-79
2021/10/03 00:51:02;;;;;;;11.80;6.90;;;;;;;11.06;100.00;92326.63;2122117;27;20388;-80
2021/10/03 00:52:06;;;;;;;8.88;6.80;;;;;;;10.96;100.00;92313.63;2132890;27;20405;-78
2021/10/03 00:53:09;;;;;;;8.45;6.80;;;;;;;10.93;100.00;92307.22;2132587;27;20021;-78
2021/10/03 00:54:10;;;;;;;7.88;7.13;;;;;;;10.94;100.00;92316.00;2121450;27;20027;-80
2021/10/03 00:55:13;;;;;;;7.75;6.85;;;;;;;10.98;100.00;92317.34;2109029;28;20028;-80
2021/10/03 00:56:15;;;;;;;7.68;6.88;;;;;;;11.07;100.00;92316.66;2112584;28;20032;-77
2021/10/03 00:57:17;;;;;;;8.23;6.40;;;;;;;11.15;100.00;92319.78;2119590;27;20403;-82
2021/10/03 00:58:18;;;;;;;7.13;6.43;;;;;;;11.07;100.00;92317.41;2124162;27;20023;-77
2021/10/03 00:59:19;;;;;;;6.68;6.03;;;;;;;10.99;100.00;92310.06;2110092;28;20030;-80
2021/10/03 01:00:26;;;;;;;6.70;5.97;;;;;;;10.90;100.00;92308.09;2114783;27;20075;-80
2021/10/03 01:01:27;;;;;;;7.35;6.47;;;;;;;11.05;100.00;92309.06;2123901;27;20023;-81
2021/10/03 01:02:28;;;;;;;10.13;6.63;;;;;;;10.97;100.00;92315.09;2132590;27;20148;-78
2021/10/03 01:03:29;;;;;;;9.52;7.00;;;;;;;11.03;100.00;92321.38;2118454;27;20563;-79
2021/10/03 01:04:30;;;;;;;7.63;6.53;;;;;;;11.00;100.00;92312.31;2106739;28;20102;-77
2021/10/03 01:05:36;;;;;;;7.78;6.20;;;;;;;11.03;100.00;92306.09;2106504;28;20024;-80
2021/10/03 01:06:37;;;;;;;9.18;5.82;;;;;;;10.91;100.00;92306.16;2107984;28;20043;-80
2021/10/03 01:07:38;;;;;;;7.20;5.75;;;;;;;10.89;100.00;92316.53;2125756;27;20043;-79
2021/10/03 01:08:39;;;;;;;7.53;6.35;;;;;;;10.83;100.00;92306.41;2118469;27;20024;-77
2021/10/03 01:09:40;;;;;;;7.50;6.50;;;;;;;10.80;100.00;92306.56;2116683;28;20028;-79
2021/10/03 01:10:41;;;;;;;7.82;5.93;;;;;;;10.82;100.00;92304.94;2124363;27;20270;-81
2021/10/03 01:11:42;;;;;;;6.53;5.75;;;;;;;10.93;100.00;92317.94;2131003;27;20071;-79
2021/10/03 01:12:43;;;;;;;6.93;6.20;;;;;;;10.89;100.00;92314.63;2125712;27;20023;-80
2021/10/03 01:13:47;;;;;;;7.15;5.80;;;;;;;10.93;100.00;92301.09;2119211;27;20504;-80
2021/10/03 01:14:48;;;;;;;6.13;5.60;;;;;;;10.86;100.00;92293.38;2115633;27;20085;-79
2021/10/03 01:15:52;;;;;;;6.53;5.80;;;;;;;10.89;100.00;92303.94;2132069;27;20019;-77
2021/10/03 01:16:53;;;;;;;6.53;5.88;;;;;;;11.07;100.00;92317.41;2123913;27;20019;-80
2021/10/03 01:17:54;;;;;;;7.35;6.57;;;;;;;10.96;100.00;92289.56;2115135;28;20019;-80
2021/10/03 01:18:56;;;;;;;8.38;6.28;;;;;;;10.91;100.00;92277.50;2115196;28;20107;-81
2021/10/03 01:19:58;;;;;;;7.25;6.20;;;;;;;10.98;100.00;92276.50;2123774;27;20387;-79
2021/10/03 01:21:07;;;;;;;7.72;6.10;;;;;;;10.93;100.00;92282.41;2123166;27;20425;-78
2021/10/03 01:22:08;;;;;;;6.47;5.87;;;;;;;10.99;100.00;92294.78;2124693;27;20101;-81
2021/10/03 01:23:10;;;;;;;8.30;6.03;;;;;;;11.16;100.00;92313.28;2132493;27;20465;-80
2021/10/03 01:24:13;;;;;;;6.28;5.68;;;;;;;11.18;100.00;92302.88;2123399;27;20023;-80
2021/10/03 01:25:15;;;;;;;7.70;5.60;;;;;;;11.15;100.00;92293.06;2123459;27;20098;-77
2021/10/03 01:26:16;;;;;;;10.80;5.75;;;;;;;11.15;100.00;92283.13;2115064;28;20497;-78
2021/10/03 01:27:17;;;;;;;6.43;5.43;;;;;;;11.12;100.00;92291.28;2114698;28;20020;-78
2021/10/03 01:28:19;;;;;;;6.70;5.32;;;;;;;11.10;100.00;92289.03;2119826;27;20023;-80
2021/10/03 01:29:20;;;;;;;8.25;5.53;;;;;;;11.08;100.00;92308.19;2118434;27;20364;-80
2021/10/03 01:30:21;;;;;;;8.90;6.38;;;;;;;10.98;100.00;92303.25;2119446;27;20022;-81
2021/10/03 01:31:26;;;;;;;6.78;5.50;;;;;;;10.92;100.00;92286.25;2127900;27;20047;-79
2021/10/03 01:32:27;;;;;;;7.35;5.97;;;;;;;10.96;100.00;92281.53;2118462;27;20494;-80
2021/10/03 01:33:28;;;;;;;6.72;5.88;;;;;;;10.95;100.00;92280.78;2119596;27;20099;-80
2021/10/03 01:34:29;;;;;;;6.82;5.82;;;;;;;11.00;100.00;92282.88;2132398;27;20029;-79
2021/10/03 01:35:30;;;;;;;6.72;6.03;;;;;;;11.15;100.00;92287.69;2127401;27;20038;-80
2021/10/03 01:36:31;;;;;;;6.85;5.75;;;;;;;11.14;100.00;92296.91;2120227;27;20038;-78
2021/10/03 01:37:33;;;;;;;6.28;5.65;;;;;;;11.06;100.00;92291.84;2114812;28;20023;-79
2021/10/03 01:38:35;;;;;;;6.22;5.60;;;;;;;11.00;100.00;92280.22;2109303;28;20417;-80
2021/10/03 01:39:37;;;;;;;6.93;6.22;;;;;;;10.99;100.00;92276.06;2115024;28;20073;-79
2021/10/03 01:40:38;;;;;;;7.68;5.93;;;;;;;11.00;100.00;92274.13;2114864;28;20098;-79
2021/10/03 01:41:39;;;;;;;6.85;5.57;;;;;;;11.02;100.00;92269.84;2114981;27;20109;-78
2021/10/03 01:42:41;;;;;;;6.20;5.60;;;;;;;11.01;100.00;92273.69;2130489;27;20021;-81
2021/10/03 01:43:42;;;;;;;6.15;5.55;;;;;;;11.01;100.00;92281.69;2123247;27;20479;-79
2021/10/03 01:44:43;;;;;;;6.43;5.90;;;;;;;11.01;100.00;92280.97;2123245;27;20024;-78
2021/10/03 01:45:45;;;;;;;7.68;6.22;;;;;;;11.03;100.00;92279.34;2125191;27;20015;-79
2021/10/03 01:46:46;;;;;;;8.15;6.53;;;;;;;11.11;100.00;92285.19;2123963;27;20025;-79
2021/10/03 01:48:12;;;;;;;9.38;6.32;;;;;;;11.00;100.00;92274.88;2114622;28;20031;-79
2021/10/03 01:49:13;;;;;;;7.00;6.10;;;;;;;11.03;100.00;92279.34;2118446;27;20031;-78
2021/10/03 01:50:15;;;;;;;6.95;5.88;;;;;;;11.04;100.00;92278.16;2124208;27;20776;-79
2021/10/03 01:51:17;;;;;;;6.22;5.38;;;;;;;11.01;100.00;92272.94;2122968;27;20544;-79
2021/10/03 01:52:18;;;;;;;6.63;5.53;;;;;;;10.98;100.00;92271.16;2120187;27;20023;-80
2021/10/03 01:53:23;;;;;;;8.32;5.72;;;;;;;10.97;100.00;92270.38;2127437;27;20098;-78
2021/10/03 01:54:23;;;;;;;5.57;5.07;;;;;;;10.88;100.00;92254.31;2128027;27;20019;-79
2021/10/03 01:55:25;;;;;;;6.68;5.35;;;;;;;10.98;100.00;92263.88;2118834;27;20491;-81
2021/10/03 01:56:27;;;;;;;6.32;5.70;;;;;;;11.09;100.00;92276.84;2123252;27;20023;-80
2021/10/03 01:57:28;;;;;;;5.47;4.97;;;;;;;11.07;100.00;92271.19;2123965;27;20019;-77
2021/10/03 01:58:32;;;;;;;7.88;5.10;;;;;;;11.11;100.00;92271.81;2123486;27;20434;-79
2021/10/03 01:59:33;;;;;;;7.93;5.35;;;;;;;10.99;100.00;92273.38;2129361;27;20378;-78
2021/10/03 02:00:37;;;;;;;5.65;5.07;;;;;;;10.93;100.00;92266.34;2132398;27;20033;-79
2021/10/03 02:01:46;;;;;;;6.95;5.00;;;;;;;10.95;100.00;92262.06;2114643;28;20028;-80
2021/10/03 02:02:56;;;;;;;6.05;5.32;;;;;;;10.97;100.00;92261.63;2104426;28;20598;-78
2021/10/03 02:03:57;;;;;;;8.15;5.18;;;;;;;10.92;100.00;92265.59;2112857;28;20480;-79
2021/10/03 02:05:00;;;;;;;6.38;5.25;;;;;;;10.84;100.00;92262.47;2123708;27;20019;-78
2021/10/03 02:07:42;;;;;;;;;;;;;;;10.78;100.00;92274.16;2140073;27;20170;-78
2021/10/03 02:08:44;;;;;;;7.40;5.10;;;;;;;10.86;100.00;92272.72;2132186;27;19911;-78
2021/10/03 02:09:44;;;;;;;6.03;5.07;;;;;;;10.91;100.00;92272.16;2137941;27;20410;-78
2021/10/03 02:10:48;;;;;;;5.68;5.00;;;;;;;10.91;100.00;92264.13;2132361;27;20027;-80
2021/10/03 02:11:52;;;;;;;7.18;5.05;;;;;;;10.90;100.00;92261.91;2139305;27;20026;-79
2021/10/03 02:12:54;;;;;;;7.22;5.65;;;;;;;10.77;100.00;92261.97;2130448;27;20152;-79
2021/10/03 02:13:55;;;;;;;7.53;5.55;;;;;;;10.71;100.00;92256.47;2126422;27;20027;-79
2021/10/03 02:14:56;;;;;;;6.40;5.32;;;;;;;10.72;100.00;92246.50;2138793;27;20023;-81
2021/10/03 02:16:01;;;;;;;7.32;5.20;;;;;;;10.81;100.00;92260.66;2131787;27;20019;-81
2021/10/03 02:17:02;;;;;;;5.15;4.65;;;;;;;10.76;100.00;92247.88;2133425;27;20096;-81
2021/10/03 02:18:05;;;;;;;6.50;5.20;;;;;;;10.77;100.00;92260.06;2130483;27;20110;-81
2021/10/03 02:19:06;;;;;;;7.47;5.60;;;;;;;10.80;100.00;92255.78;2137031;27;20037;-78
2021/10/03 02:20:07;;;;;;;7.45;5.22;;;;;;;10.72;100.00;92249.19;2139281;27;20093;-77
2021/10/03 02:21:09;;;;;;;9.18;5.78;;;;;;;10.67;100.00;92255.84;2131528;27;20156;-80
2021/10/03 02:22:11;;;;;;;10.13;5.28;;;;;;;10.67;100.00;92241.72;2133546;27;20030;-79
2021/10/03 02:23:13;;;;;;;6.82;5.45;;;;;;;10.68;100.00;92243.97;2139647;27;20477;-78
2021/10/03 02:24:15;;;;;;;6.63;5.80;;;;;;;10.65;100.00;92239.47;2136141;27;20756;-78
2021/10/03 02:25:17;;;;;;;6.60;5.28;;;;;;;10.57;100.00;92239.00;2133760;27;20084;-80
2021/10/03 02:26:18;;;;;;;6.18;5.25;;;;;;;10.56;100.00;92234.09;2135565;27;20056;-79
2021/10/03 02:27:19;;;;;;;9.23;6.38;;;;;;;10.55;100.00;92238.69;2134003;27;20371;-79
2021/10/03 02:28:23;;;;;;;7.18;5.22;;;;;;;10.64;100.00;92238.00;2135155;27;20050;-79
2021/10/03 02:29:24;;;;;;;6.68;4.97;;;;;;;10.88;100.00;92232.91;2113803;28;20069;-76
2021/10/03 02:30:25;;;;;;;7.13;5.25;;;;;;;10.80;100.00;92234.38;2117807;27;20438;-76
2021/10/03 02:31:26;;;;;;;5.95;5.05;;;;;;;10.73;100.00;92231.97;2126027;27;20045;-81
2021/10/03 02:32:27;;;;;;;5.80;5.15;;;;;;;10.69;100.00;92231.34;2121810;27;20024;-80
2021/10/03 02:33:28;;;;;;;5.65;5.15;;;;;;;10.59;100.00;92233.97;2130467;27;20023;-77
2021/10/03 02:34:29;;;;;;;5.80;5.20;;;;;;;10.56;100.00;92226.81;2131079;27;20029;-79
2021/10/03 02:35:30;;;;;;;5.93;5.13;;;;;;;10.61;100.00;92235.44;2126992;27;20533;-79
2021/10/03 02:36:31;;;;;;;5.10;4.60;;;;;;;10.55;100.00;92225.34;2116624;28;20027;-80
2021/10/03 02:37:32;;;;;;;6.15;5.10;;;;;;;10.46;100.00;92222.59;2132964;27;20049;-79
2021/10/03 02:38:35;;;;;;;6.20;5.22;;;;;;;10.38;100.00;92221.38;2138972;27;20026;-79
2021/10/03 02:39:35;;;;;;;7.05;4.60;;;;;;;10.32;100.00;92215.09;2132905;27;20023;-78
2021/10/03 02:40:37;;;;;;;9.30;4.88;;;;;;;10.38;100.00;92218.69;2136657;27;20340;-82
2021/10/03 02:41:38;;;;;;;5.90;5.30;;;;;;;10.38;100.00;92215.28;2133306;27;20019;-80
2021/10/03 02:42:40;;;;;;;7.00;5.25;;;;;;;10.50;100.00;92231.25;2130315;27;20026;-79
2021/10/03 02:43:45;;;;;;;5.53;4.72;;;;;;;10.44;100.00;92221.53;2121910;27;20404;-80
2021/10/03 02:44:46;;;;;;;5.55;5.05;;;;;;;10.31;100.00;92224.28;2122389;27;20016;-80
2021/10/03 02:45:50;;;;;;;6.43;5.82;;;;;;;10.25;100.00;92221.44;2129228;27;20032;-78
2021/10/03 02:46:51;;;;;;;5.43;4.85;;;;;;;10.22;100.00;92208.91;2138902;27;20022;-78
2021/10/03 02:47:53;;;;;;;9.73;5.18;;;;;;;10.24;100.00;92209.25;2138916;27;20474;-80
2021/10/03 02:48:54;;;;;;;6.80;4.90;;;;;;;10.27;100.00;92205.72;2130546;27;20465;-78
2021/10/03 02:49:55;;;;;;;5.82;5.22;;;;;;;10.27;100.00;92203.06;2130873;27;20101;-79
2021/10/03 02:50:57;;;;;;;6.70;5.30;;;;;;;10.24;100.00;92201.25;2125206;27;20031;-78
2021/10/03 02:51:58;;;;;;;8.75;5.45;;;;;;;10.23;100.00;92215.75;2122341;27;20026;-75
2021/10/03 02:53:00;;;;;;;5.72;5.07;;;;;;;10.45;100.00;92218.44;2122403;27;20106;-78
2021/10/03 02:54:01;;;;;;;6.55;5.32;;;;;;;10.36;100.00;92223.75;2132124;27;20026;-78
2021/10/03 02:55:03;;;;;;;6.50;5.40;;;;;;;10.43;100.00;92220.81;2138156;27;20018;-80
2021/10/03 02:56:04;;;;;;;8.35;5.47;;;;;;;10.32;100.00;92223.13;2133094;27;20076;-78
2021/10/03 02:57:07;;;;;;;6.78;5.28;;;;;;;10.27;100.00;92215.66;2132283;27;20102;-81
2021/10/03 02:58:08;;;;;;;5.45;4.82;;;;;;;10.22;100.00;92211.59;2137355;27;20018;-81
2021/10/03 02:59:09;;;;;;;7.90;5.10;;;;;;;10.23;100.00;92207.00;2121558;28;20053;-78
2021/10/03 03:00:11;;;;;;;6.40;5.15;;;;;;;10.20;100.00;92202.53;2124040;27;20023;-77
2021/10/03 03:01:12;;;;;;;7.60;5.72;;;;;;;10.15;100.00;92200.41;2136886;27;20018;-78
2021/10/03 03:02:13;;;;;;;5.53;5.03;;;;;;;10.16;100.00;92196.56;2117065;28;20082;-80
2021/10/03 03:03:14;;;;;;;11.40;6.68;;;;;;;10.17;100.00;92203.38;2111045;27;20052;-81
2021/10/03 03:04:16;;;;;;;6.80;5.47;;;;;;;10.13;100.00;92216.13;2130419;27;20023;-80
2021/10/03 03:05:18;;;;;;;6.57;5.60;;;;;;;10.08;100.00;92206.75;2127428;27;20030;-78
2021/10/03 03:06:19;;;;;;;6.15;5.55;;;;;;;10.04;100.00;92208.78;2124961;27;20761;-78
2021/10/03 03:07:20;;;;;;;5.93;5.43;;;;;;;10.06;100.00;92207.19;2129843;27;20043;-78
2021/10/03 03:08:21;;;;;;;6.07;5.47;;;;;;;10.04;100.00;92203.44;2126996;27;20020;-80
2021/10/03 03:09:22;;;;;;;7.07;5.53;;;;;;;9.99;100.00;92204.75;2126207;27;20019;-79
2021/10/03 03:10:23;;;;;;;7.32;5.78;;;;;;;10.11;100.00;92203.22;2126770;27;20031;-78
2021/10/03 03:11:25;;;;;;;6.75;6.05;;;;;;;10.09;100.00;92203.63;2126370;27;20393;-80
2021/10/03 03:12:25;;;;;;;7.65;5.60;;;;;;;10.11;100.00;92200.53;2130045;27;20046;-79
2021/10/03 03:13:27;;;;;;;7.80;5.50;;;;;;;10.09;100.00;92200.22;2130104;27;20019;-75
2021/10/03 03:14:28;;;;;;;7.30;5.63;;;;;;;10.46;100.00;92201.22;2130162;27;20518;-80
2021/10/03 03:15:29;;;;;;;11.30;6.03;;;;;;;10.41;100.00;92201.81;2121087;28;20015;-77
2021/10/03 03:16:30;;;;;;;7.43;5.22;;;;;;;10.44;100.00;92200.16;2121470;28;20046;-79
2021/10/03 03:17:31;;;;;;;6.32;5.15;;;;;;;10.34;100.00;92199.38;2126687;27;20031;-80
2021/10/03 03:18:32;;;;;;;5.90;5.28;;;;;;;10.24;100.00;92189.78;2128300;27;20027;-80
2021/10/03 03:19:33;;;;;;;5.88;5.28;;;;;;;10.22;100.00;92186.81;2124951;27;20375;-79
2021/10/03 03:20:34;;;;;;;6.97;5.43;;;;;;;10.25;100.00;92192.06;2119338;27;20019;-79
2021/10/03 03:21:35;;;;;;;7.20;5.13;;;;;;;10.32;100.00;92189.13;2122111;27;20359;-80
2021/10/03 03:22:37;;;;;;;6.03;5.43;;;;;;;10.26;100.00;92196.22;2124978;27;20031;-78
2021/10/03 03:23:38;;;;;;;7.10;5.38;;;;;;;10.24;100.00;92193.25;2118179;27;20408;-79
2021/10/03 03:24:40;;;;;;;8.00;5.45;;;;;;;10.17;100.00;92190.78;2122092;27;20106;-78
2021/10/03 03:25:41;;;;;;;7.15;5.47;;;;;;;10.20;100.00;92184.56;2124947;27;20417;-80
2021/10/03 03:26:42;;;;;;;11.68;5.53;;;;;;;10.21;100.00;92190.66;2109194;28;20042;-78
2021/10/03 03:27:43;;;;;;;6.55;5.28;;;;;;;10.19;100.00;92193.03;2107495;28;20032;-79
2021/10/03 03:28:44;;;;;;;7.32;6.10;;;;;;;10.14;100.00;92191.66;2116462;28;20483;-79
2021/10/03 03:29:45;;;;;;;6.68;5.50;;;;;;;10.08;100.00;92188.78;2122744;27;20033;-77
2021/10/03 03:30:46;;;;;;;6.20;5.60;;;;;;;10.08;100.00;92188.78;2108676;28;20126;-80
2021/10/03 03:31:47;;;;;;;6.55;5.05;;;;;;;10.05;100.00;92178.22;2115967;28;20466;-82
2021/10/03 03:32:49;;;;;;;7.50;5.72;;;;;;;10.05;100.00;92178.22;2116456;28;20023;-79
2021/10/03 03:33:50;;;;;;;6.47;5.10;;;;;;;10.08;100.00;92175.44;2115556;28;20019;-79
2021/10/03 03:34:51;;;;;;;5.80;5.20;;;;;;;10.13;100.00;92194.75;2115814;28;20062;-81
2021/10/03 03:35:52;;;;;;;5.80;5.20;;;;;;;10.15;100.00;92179.06;2116258;28;20023;-79
2021/10/03 03:36:53;;;;;;;6.90;5.75;;;;;;;10.11;100.00;92183.78;2115875;28;20482;-78
2021/10/03 03:37:54;;;;;;;9.13;6.30;;;;;;;10.05;100.00;92189.69;2123919;27;20027;-79
2021/10/03 03:38:55;;;;;;;7.53;5.13;;;;;;;9.98;100.00;92187.25;2124294;27;20090;-79
2021/10/03 03:39:56;;;;;;;6.03;5.43;;;;;;;9.96;100.00;92181.59;2123927;27;20030;-80
2021/10/03 03:40:57;;;;;;;7.40;5.57;;;;;;;9.96;100.00;92186.19;2115733;28;20070;-78
2021/10/03 03:41:58;;;;;;;10.93;5.97;;;;;;;9.96;100.00;92178.91;2116065;27;20369;-78
2021/10/03 03:42:59;;;;;;;7.57;5.25;;;;;;;9.93;100.00;92179.81;2124292;27;20046;-79
2021/10/03 03:44:00;;;;;;;7.20;5.22;;;;;;;9.93;100.00;92181.72;2123942;27;20485;-81
2021/10/03 03:45:01;;;;;;;5.63;5.13;;;;;;;10.00;100.00;92182.19;2116409;27;20027;-78
2021/10/03 03:46:03;;;;;;;5.88;5.28;;;;;;;9.95;100.00;92196.13;2107216;28;20067;-78
2021/10/03 03:47:04;;;;;;;5.85;5.32;;;;;;;9.93;100.00;92189.75;2097785;28;20021;-79
2021/10/03 03:48:05;;;;;;;6.60;5.65;;;;;;;9.95;100.00;92187.38;2107357;28;20046;-78
2021/10/03 03:49:06;;;;;;;6.10;5.50;;;;;;;9.91;100.00;92190.16;2116944;27;20058;-79
2021/10/03 03:50:11;;;;;;;5.93;5.05;;;;;;;9.93;100.00;92185.13;2119497;27;20031;-80
2021/10/03 03:51:12;;;;;;;6.35;5.75;;;;;;;9.87;100.00;92178.09;2114683;28;20543;-78
2021/10/03 03:52:13;;;;;;;6.68;5.70;;;;;;;9.93;100.00;92181.72;2115522;28;20019;-79
2021/10/03 03:53:14;;;;;;;10.77;5.65;;;;;;;9.89;100.00;92181.09;2115622;28;20026;-78
2021/10/03 03:54:15;;;;;;;5.80;4.95;;;;;;;9.90;100.00;92185.25;2115485;28;20031;-79
2021/10/03 03:55:16;;;;;;;7.43;5.22;;;;;;;9.92;100.00;92178.31;2115647;28;20034;-82
2021/10/03 03:56:17;;;;;;;9.27;5.80;;;;;;;10.05;100.00;92176.34;2115434;28;20023;-78
2021/10/03 03:57:18;;;;;;;6.85;5.95;;;;;;;10.13;100.00;92182.16;2119268;27;20456;-80
2021/10/03 03:58:19;;;;;;;5.78;5.28;;;;;;;10.06;100.00;92185.81;2121218;27;20031;-79
2021/10/03 03:59:20;;;;;;;6.32;5.05;;;;;;;10.05;100.00;92170.22;2120202;27;20478;-78
2021/10/03 04:00:21;;;;;;;6.13;5.32;;;;;;;10.14;100.00;92170.31;2119695;27;20409;-79
2021/10/03 04:01:22;;;;;;;5.93;5.00;;;;;;;10.09;100.00;92173.50;2111772;28;20020;-80
2021/10/03 04:02:23;;;;;;;7.45;5.32;;;;;;;10.04;100.00;92185.50;2111023;27;20030;-79
2021/10/03 04:03:24;;;;;;;6.32;5.72;;;;;;;10.00;100.00;92182.19;2124783;27;20372;-81
2021/10/03 04:04:25;;;;;;;5.88;5.38;;;;;;;10.00;100.00;92178.78;2124002;27;20037;-80
2021/10/03 04:05:26;;;;;;;6.38;5.35;;;;;;;9.97;100.00;92177.00;2119652;27;20481;-78
2021/10/03 04:06:27;;;;;;;5.97;5.38;;;;;;;9.92;100.00;92181.00;2120290;27;20019;-79
2021/10/03 04:07:28;;;;;;;6.35;5.75;;;;;;;9.95;100.00;92174.00;2116243;27;20598;-78
2021/10/03 04:08:30;;;;;;;7.03;5.78;;;;;;;9.94;100.00;92175.19;2115520;28;20061;-77
2021/10/03 04:09:31;;;;;;;6.25;5.55;;;;;;;9.96;100.00;92176.25;2120415;27;20026;-82
2021/10/03 04:10:32;;;;;;;6.47;5.75;;;;;;;9.97;100.00;92179.69;2119450;27;20023;-79
2021/10/03 04:11:33;;;;;;;7.32;5.55;;;;;;;9.96;100.00;92176.25;2116035;28;20102;-78
2021/10/03 04:12:35;;;;;;;6.05;5.45;;;;;;;9.91;100.00;92181.41;2121303;27;20452;-80
2021/10/03 04:13:35;;;;;;;6.75;6.05;;;;;;;9.85;100.00;92181.22;2123901;27;20023;-80
2021/10/03 04:14:38;;;;;;;7.40;5.95;;;;;;;9.90;100.00;92178.00;2118182;27;20030;-79
2021/10/03 04:15:39;;;;;;;6.97;5.47;;;;;;;9.91;100.00;92184.81;2122199;27;20067;-82
2021/10/03 04:16:40;;;;;;;6.28;5.68;;;;;;;9.88;100.00;92179.59;2117504;27;20023;-80
2021/10/03 04:17:42;;;;;;;6.35;5.75;;;;;;;9.90;100.00;92183.31;2115244;28;20020;-81
2021/10/03 04:18:43;;;;;;;6.18;5.30;;;;;;;9.88;100.00;92184.94;2115378;28;20019;-79
2021/10/03 04:19:44;;;;;;;6.47;5.78;;;;;;;10.04;100.00;92180.16;2106939;28;20024;-77
2021/10/03 04:20:45;;;;;;;6.03;5.43;;;;;;;10.04;100.00;92176.75;2111268;28;20024;-79
2021/10/03 04:21:46;;;;;;;6.70;6.00;;;;;;;10.01;100.00;92170.38;2120936;27;20023;-79
2021/10/03 04:22:47;;;;;;;7.88;6.55;;;;;;;10.02;100.00;92163.84;2115598;28;20092;-78
2021/10/03 04:23:47;;;;;;;8.20;7.28;;;;;;;9.94;100.00;92178.63;2107971;28;20027;-78
2021/10/03 04:24:49;;;;;;;7.30;6.03;;;;;;;9.95;100.00;92177.44;2115475;28;20019;-81
2021/10/03 04:25:50;;;;;;;6.72;5.80;;;;;;;9.99;100.00;92186.06;2115917;28;20027;-83
2021/10/03 04:26:51;;;;;;;6.55;5.95;;;;;;;9.94;100.00;92178.63;2114471;28;20027;-81
2021/10/03 04:27:52;;;;;;;9.23;6.15;;;;;;;9.97;100.00;92179.69;2115519;28;20064;-78
2021/10/03 04:28:53;;;;;;;7.07;5.35;;;;;;;10.00;100.00;92173.47;2115577;27;20047;-80
2021/10/03 04:29:54;;;;;;;6.47;5.88;;;;;;;9.98;100.00;92175.81;2115174;28;20039;-81
2021/10/03 04:30:56;;;;;;;6.32;5.72;;;;;;;9.92;100.00;92180.22;2123430;27;20027;-81
2021/10/03 04:31:57;;;;;;;8.20;5.63;;;;;;;9.94;100.00;92186.63;2107791;28;20019;-79
2021/10/03 04:32:58;;;;;;;8.77;6.03;;;;;;;10.12;100.00;92179.91;2124401;27;20019;-80
2021/10/03 04:34:01;;;;;;;7.38;5.95;;;;;;;9.99;100.00;92175.38;2124594;27;20015;-80
2021/10/03 04:35:02;;;;;;;8.80;6.72;;;;;;;10.04;100.00;92174.81;2123965;27;20447;-81
2021/10/03 04:36:04;;;;;;;6.13;5.45;;;;;;;9.98;100.00;92176.56;2115514;28;20035;-80
2021/10/03 04:37:05;;;;;;;7.32;5.72;;;;;;;9.94;100.00;92180.53;2109959;28;20076;-79
2021/10/03 04:38:06;;;;;;;6.60;5.60;;;;;;;10.18;100.00;92180.84;2115332;28;20082;-80
2021/10/03 04:39:07;;;;;;;7.95;6.13;;;;;;;10.17;100.00;92172.09;2115420;28;20027;-80
2021/10/03 04:40:08;;;;;;;7.85;6.13;;;;;;;10.06;100.00;92166.41;2115890;28;20054;-79
2021/10/03 04:41:09;;;;;;;7.65;5.50;;;;;;;10.01;100.00;92169.63;2117230;27;20024;-79
2021/10/03 04:42:10;;;;;;;9.13;6.07;;;;;;;9.92;100.00;92182.88;2123630;27;20023;-77
2021/10/03 04:43:11;;;;;;;6.43;5.75;;;;;;;9.85;100.00;92183.88;2123507;27;20034;-78
2021/10/03 04:44:12;;;;;;;6.30;5.70;;;;;;;9.92;100.00;92175.66;2115278;28;20501;-79
2021/10/03 04:45:15;;;;;;;6.93;5.95;;;;;;;10.00;100.00;92170.78;2115099;28;20043;-79
2021/10/03 04:46:16;;;;;;;6.32;5.68;;;;;;;9.94;100.00;92170.59;2106917;28;20043;-78
2021/10/03 04:47:17;;;;;;;6.72;6.03;;;;;;;9.89;100.00;92178.44;2106706;28;20020;-78
2021/10/03 04:48:18;;;;;;;7.40;6.20;;;;;;;10.00;100.00;92176.13;2123412;27;20743;-81
2021/10/03 04:49:19;;;;;;;10.80;6.47;;;;;;;9.93;100.00;92173.72;2115804;27;20023;-80